Terminal Aerodrome Forecast
Issued by NWS Dodge City, KS

Home | Current Version | Previous Version | Graphics & Text | Print | Product List | Glossary Off
Versions: 1 2 3 4 5 6 7 8 9 10 11 12 13 14 15 16 17 18 19 20 21 22 23 24 25 26 27 28 29 30 31 32 33 34 35 36

000
FTUS43 KDDC 281339 AAB
TAFDDC
TAF AMD
KDDC 281339Z 2814/2912 13011KT 1/2SM FG OVC002
     FM281700 11017KT 5SM -SHRA BR OVC008
     FM290400 09019G27KT 1/2SM -SHRA FG OVC003=

USA.gov is the U.S. government's official web portal to all federal, state and local government web resources and services.